sensor_id;sensor_type;location;lat;lon;timestamp;pressure;altitude;pressure_sealevel;temperature;humidity
50268;BME280;36153;50.960;6.220;2023-06-04T00:00:38;101003.25;;;15.27;42.72
50268;BME280;36153;50.960;6.220;2023-06-04T00:03:39;101013.75;;;15.10;43.35
50268;BME280;36153;50.960;6.220;2023-06-04T00:06:39;101009.34;;;15.12;43.80
50268;BME280;36153;50.960;6.220;2023-06-04T00:09:40;101011.09;;;15.02;44.45
50268;BME280;36153;50.960;6.220;2023-06-04T00:12:40;101011.97;;;14.89;45.20
50268;BME280;36153;50.960;6.220;2023-06-04T00:15:40;101011.94;;;14.80;45.66
50268;BME280;36153;50.960;6.220;2023-06-04T00:18:41;101012.81;;;14.74;46.04
50268;BME280;36153;50.960;6.220;2023-06-04T00:21:42;101009.28;;;14.71;46.21
50268;BME280;36153;50.960;6.220;2023-06-04T00:24:42;101007.53;;;14.65;46.50
50268;BME280;36153;50.960;6.220;2023-06-04T00:27:42;101009.28;;;14.72;46.50
50268;BME280;36153;50.960;6.220;2023-06-04T00:30:43;101011.03;;;14.76;46.52
50268;BME280;36153;50.960;6.220;2023-06-04T00:33:43;101005.81;;;14.79;46.53
50268;BME280;36153;50.960;6.220;2023-06-04T00:36:43;101001.44;;;14.74;46.64
50268;BME280;36153;50.960;6.220;2023-06-04T00:39:44;100998.81;;;14.69;46.76
50268;BME280;36153;50.960;6.220;2023-06-04T00:42:44;100994.44;;;14.68;46.40
50268;BME280;36153;50.960;6.220;2023-06-04T00:45:45;100990.94;;;14.64;46.41
50268;BME280;36153;50.960;6.220;2023-06-04T00:48:45;100990.00;;;14.59;46.16
50268;BME280;36153;50.960;6.220;2023-06-04T00:51:46;100990.03;;;14.64;45.34
50268;BME280;36153;50.960;6.220;2023-06-04T00:54:46;100990.09;;;14.72;45.12
50268;BME280;36153;50.960;6.220;2023-06-04T00:57:46;100997.94;;;14.68;45.52
50268;BME280;36153;50.960;6.220;2023-06-04T01:00:47;100985.72;;;14.66;44.92
50268;BME280;36153;50.960;6.220;2023-06-04T01:03:49;100995.31;;;14.67;45.31
50268;BME280;36153;50.960;6.220;2023-06-04T01:06:52;100990.94;;;14.66;45.47
50268;BME280;36153;50.960;6.220;2023-06-04T01:09:55;100993.56;;;14.69;45.56
50268;BME280;36153;50.960;6.220;2023-06-04T01:12:56;100992.63;;;14.59;46.24
50268;BME280;36153;50.960;6.220;2023-06-04T01:15:56;100986.50;;;14.52;46.36
50268;BME280;36153;50.960;6.220;2023-06-04T01:18:58;100996.97;;;14.45;45.98
50268;BME280;36153;50.960;6.220;2023-06-04T01:22:04;100989.97;;;14.42;46.05
50268;BME280;36153;50.960;6.220;2023-06-04T01:25:16;101005.69;;;14.45;46.22
50268;BME280;36153;50.960;6.220;2023-06-04T01:28:19;100996.00;;;14.26;46.76
50268;BME280;36153;50.960;6.220;2023-06-04T01:31:22;100998.56;;;14.13;47.11
50268;BME280;36153;50.960;6.220;2023-06-04T01:34:23;100997.72;;;14.22;46.67
50268;BME280;36153;50.960;6.220;2023-06-04T01:37:23;100989.88;;;14.21;46.48
50268;BME280;36153;50.960;6.220;2023-06-04T01:40:24;100996.00;;;14.21;46.32
50268;BME280;36153;50.960;6.220;2023-06-04T01:43:25;100997.75;;;14.24;45.92
50268;BME280;36153;50.960;6.220;2023-06-04T01:46:26;101001.19;;;14.10;45.98
50268;BME280;36153;50.960;6.220;2023-06-04T01:49:26;100991.56;;;14.09;45.67
50268;BME280;36153;50.960;6.220;2023-06-04T01:52:27;100994.25;;;14.22;45.24
50268;BME280;36153;50.960;6.220;2023-06-04T01:55:27;100990.81;;;14.38;45.15
50268;BME280;36153;50.960;6.220;2023-06-04T01:58:29;100993.44;;;14.37;44.89
50268;BME280;36153;50.960;6.220;2023-06-04T02:01:32;100998.63;;;14.29;45.24
50268;BME280;36153;50.960;6.220;2023-06-04T02:04:32;100993.44;;;14.35;44.96
50268;BME280;36153;50.960;6.220;2023-06-04T02:07:43;100996.91;;;14.29;45.31
50268;BME280;36153;50.960;6.220;2023-06-04T02:10:46;100998.69;;;14.43;44.54
50268;BME280;36153;50.960;6.220;2023-06-04T02:13:47;101002.16;;;14.40;44.76
50268;BME280;36153;50.960;6.220;2023-06-04T02:16:47;100995.22;;;14.42;44.47
50268;BME280;36153;50.960;6.220;2023-06-04T02:19:50;101001.31;;;14.46;44.18
50268;BME280;36153;50.960;6.220;2023-06-04T02:22:51;101001.34;;;14.49;44.11
50268;BME280;36153;50.960;6.220;2023-06-04T02:25:51;101005.72;;;14.53;44.19
50268;BME280;36153;50.960;6.220;2023-06-04T02:28:51;101001.34;;;14.49;44.18
50268;BME280;36153;50.960;6.220;2023-06-04T02:31:52;100994.34;;;14.46;44.25
50268;BME280;36153;50.960;6.220;2023-06-04T02:34:52;100997.81;;;14.41;44.02
50268;BME280;36153;50.960;6.220;2023-06-04T02:37:53;101001.28;;;14.33;44.52
50268;BME280;36153;50.960;6.220;2023-06-04T02:40:53;101003.88;;;14.30;44.76
50268;BME280;36153;50.960;6.220;2023-06-04T02:43:53;101004.72;;;14.26;45.26
50268;BME280;36153;50.960;6.220;2023-06-04T02:46:54;101009.09;;;14.23;44.99
50268;BME280;36153;50.960;6.220;2023-06-04T02:49:54;101002.91;;;14.05;45.62
50268;BME280;36153;50.960;6.220;2023-06-04T02:52:54;101005.50;;;13.99;45.92
50268;BME280;36153;50.960;6.220;2023-06-04T02:55:55;101001.00;;;13.78;46.31
50268;BME280;36153;50.960;6.220;2023-06-04T02:58:55;101007.19;;;13.91;46.17
50268;BME280;36153;50.960;6.220;2023-06-04T03:01:56;101013.28;;;13.94;45.96
50268;BME280;36153;50.960;6.220;2023-06-04T03:04:56;101014.19;;;13.93;45.83
50268;BME280;36153;50.960;6.220;2023-06-04T03:07:57;101011.44;;;13.76;46.23
50268;BME280;36153;50.960;6.220;2023-06-04T03:10:58;101015.78;;;13.68;46.13
50268;BME280;36153;50.960;6.220;2023-06-04T03:13:59;101015.78;;;13.71;46.37
50268;BME280;36153;50.960;6.220;2023-06-04T03:17:00;101013.19;;;13.76;45.91
50268;BME280;36153;50.960;6.220;2023-06-04T03:20:10;101005.34;;;13.74;46.14
50268;BME280;36153;50.960;6.220;2023-06-04T03:23:11;100999.16;;;13.64;46.36
50268;BME280;36153;50.960;6.220;2023-06-04T03:26:11;100997.41;;;13.66;46.36
50268;BME280;36153;50.960;6.220;2023-06-04T03:29:14;100991.31;;;13.66;46.34
50268;BME280;36153;50.960;6.220;2023-06-04T03:32:14;100998.34;;;13.70;46.08
50268;BME280;36153;50.960;6.220;2023-06-04T03:35:16;101007.03;;;13.66;46.17
50268;BME280;36153;50.960;6.220;2023-06-04T03:38:16;101004.38;;;13.60;46.03
50268;BME280;36153;50.960;6.220;2023-06-04T03:41:16;101010.38;;;13.48;46.78
50268;BME280;36153;50.960;6.220;2023-06-04T03:44:17;101015.56;;;13.42;47.17
50268;BME280;36153;50.960;6.220;2023-06-04T03:47:18;101015.59;;;13.46;47.08
50268;BME280;36153;50.960;6.220;2023-06-04T03:50:18;101015.63;;;13.51;47.12
50268;BME280;36153;50.960;6.220;2023-06-04T03:53:19;101012.19;;;13.57;47.38
50268;BME280;36153;50.960;6.220;2023-06-04T03:56:19;101007.03;;;13.66;47.46
50268;BME280;36153;50.960;6.220;2023-06-04T03:59:21;101004.50;;;13.81;47.51
50268;BME280;36153;50.960;6.220;2023-06-04T04:02:22;101006.34;;;13.92;47.13
50268;BME280;36153;50.960;6.220;2023-06-04T04:05:22;101005.50;;;14.04;46.63
50268;BME280;36153;50.960;6.220;2023-06-04T04:08:22;101016.91;;;14.15;46.01
50268;BME280;36153;50.960;6.220;2023-06-04T04:11:23;101012.59;;;14.28;45.59
50268;BME280;36153;50.960;6.220;2023-06-04T04:14:23;101014.28;;;14.18;46.60
50268;BME280;36153;50.960;6.220;2023-06-04T04:17:24;101016.03;;;14.17;47.27
50268;BME280;36153;50.960;6.220;2023-06-04T04:20:25;101014.34;;;14.26;47.29
50268;BME280;36153;50.960;6.220;2023-06-04T04:23:25;101014.38;;;14.33;46.84
50268;BME280;36153;50.960;6.220;2023-06-04T04:26:27;101011.78;;;14.41;46.78
50268;BME280;36153;50.960;6.220;2023-06-04T04:29:27;101020.56;;;14.54;46.98
50268;BME280;36153;50.960;6.220;2023-06-04T04:32:32;101018.00;;;14.63;46.72
50268;BME280;36153;50.960;6.220;2023-06-04T04:35:33;101023.28;;;14.74;46.59
50268;BME280;36153;50.960;6.220;2023-06-04T04:38:34;101018.91;;;14.79;46.46
50268;BME280;36153;50.960;6.220;2023-06-04T04:41:36;101017.22;;;14.92;46.89
50268;BME280;36153;50.960;6.220;2023-06-04T04:44:37;101018.09;;;15.02;46.31
50268;BME280;36153;50.960;6.220;2023-06-04T04:47:37;101018.97;;;15.33;45.55
50268;BME280;36153;50.960;6.220;2023-06-04T04:50:38;101025.97;;;15.39;45.99
50268;BME280;36153;50.960;6.220;2023-06-04T04:53:38;101023.34;;;15.48;45.83
50268;BME280;36153;50.960;6.220;2023-06-04T04:56:39;101025.09;;;15.62;45.88
50268;BME280;36153;50.960;6.220;2023-06-04T04:59:39;101019.84;;;15.79;45.15
50268;BME280;36153;50.960;6.220;2023-06-04T05:02:40;101022.47;;;15.90;44.79
50268;BME280;36153;50.960;6.220;2023-06-04T05:05:40;101031.22;;;15.87;44.91
50268;BME280;36153;50.960;6.220;2023-06-04T05:08:40;101025.03;;;16.11;44.96
50268;BME280;36153;50.960;6.220;2023-06-04T05:11:42;101028.50;;;16.29;44.30
50268;BME280;36153;50.960;6.220;2023-06-04T05:14:42;101028.50;;;16.29;44.51
50268;BME280;36153;50.960;6.220;2023-06-04T05:17:43;101029.19;;;16.62;44.18
50268;BME280;36153;50.960;6.220;2023-06-04T05:20:43;101033.63;;;16.57;43.87
50268;BME280;36153;50.960;6.220;2023-06-04T05:23:44;101031.00;;;16.55;44.38
50268;BME280;36153;50.960;6.220;2023-06-04T05:26:48;101038.91;;;16.53;44.59
50268;BME280;36153;50.960;6.220;2023-06-04T05:29:48;101032.66;;;16.68;44.38
50268;BME280;36153;50.960;6.220;2023-06-04T05:32:49;101040.50;;;16.82;44.59
50268;BME280;36153;50.960;6.220;2023-06-04T05:35:50;101036.06;;;16.97;43.89
50268;BME280;36153;50.960;6.220;2023-06-04T05:39:00;101043.81;;;17.15;43.59
50268;BME280;36153;50.960;6.220;2023-06-04T05:42:00;101043.78;;;17.25;43.77
50268;BME280;36153;50.960;6.220;2023-06-04T05:45:00;101041.03;;;17.38;43.54
50268;BME280;36153;50.960;6.220;2023-06-04T05:48:01;101042.69;;;17.49;43.41
50268;BME280;36153;50.960;6.220;2023-06-04T05:51:01;101039.13;;;17.56;43.42
50268;BME280;36153;50.960;6.220;2023-06-04T05:54:02;101039.88;;;17.72;42.72
50268;BME280;36153;50.960;6.220;2023-06-04T05:57:04;101045.91;;;17.83;42.31
50268;BME280;36153;50.960;6.220;2023-06-04T06:00:04;101039.56;;;18.03;42.08
50268;BME280;36153;50.960;6.220;2023-06-04T06:03:13;101045.72;;;18.02;42.05
50268;BME280;36153;50.960;6.220;2023-06-04T06:06:16;101044.00;;;17.99;42.43
50268;BME280;36153;50.960;6.220;2023-06-04T06:09:19;101050.00;;;18.14;42.06
50268;BME280;36153;50.960;6.220;2023-06-04T06:12:20;101054.13;;;18.36;41.64
50268;BME280;36153;50.960;6.220;2023-06-04T06:15:20;101061.78;;;18.55;41.36
50268;BME280;36153;50.960;6.220;2023-06-04T06:18:20;101063.47;;;18.64;41.12
50268;BME280;36153;50.960;6.220;2023-06-04T06:21:20;101065.06;;;18.75;41.30
50268;BME280;36153;50.960;6.220;2023-06-04T06:24:21;101064.72;;;19.02;40.71
50268;BME280;36153;50.960;6.220;2023-06-04T06:27:21;101075.16;;;19.11;40.22
50268;BME280;36153;50.960;6.220;2023-06-04T06:30:22;101082.69;;;19.34;40.00
50268;BME280;36153;50.960;6.220;2023-06-04T06:33:23;101077.94;;;19.56;39.84
50268;BME280;36153;50.960;6.220;2023-06-04T06:36:23;101091.13;;;19.58;39.82
50268;BME280;36153;50.960;6.220;2023-06-04T06:39:24;101083.81;;;19.75;39.42
50268;BME280;36153;50.960;6.220;2023-06-04T06:42:24;101081.03;;;19.83;39.34
50268;BME280;36153;50.960;6.220;2023-06-04T06:45:25;101089.59;;;19.98;39.17
50268;BME280;36153;50.960;6.220;2023-06-04T06:48:25;101081.59;;;20.02;39.08
50268;BME280;36153;50.960;6.220;2023-06-04T06:51:25;101077.63;;;20.26;38.71
50268;BME280;36153;50.960;6.220;2023-06-04T06:54:26;101084.31;;;20.43;38.56
50268;BME280;36153;50.960;6.220;2023-06-04T06:57:26;101083.19;;;20.56;38.43
50268;BME280;36153;50.960;6.220;2023-06-04T07:00:27;101087.13;;;20.79;37.95
50268;BME280;36153;50.960;6.220;2023-06-04T07:03:30;101091.22;;;20.94;37.54
50268;BME280;36153;50.960;6.220;2023-06-04T07:06:31;101092.47;;;21.17;37.30
50268;BME280;36153;50.960;6.220;2023-06-04T07:09:32;101083.47;;;21.25;36.55
50268;BME280;36153;50.960;6.220;2023-06-04T07:12:32;101083.50;;;21.22;36.82
50268;BME280;36153;50.960;6.220;2023-06-04T07:15:33;101082.81;;;21.14;36.86
50268;BME280;36153;50.960;6.220;2023-06-04T07:18:33;101087.25;;;21.53;36.62
50268;BME280;36153;50.960;6.220;2023-06-04T07:21:33;101085.78;;;21.77;36.76
50268;BME280;36153;50.960;6.220;2023-06-04T07:24:34;101086.94;;;21.65;37.22
50268;BME280;36153;50.960;6.220;2023-06-04T07:27:34;101078.53;;;21.82;36.48
50268;BME280;36153;50.960;6.220;2023-06-04T07:30:35;101083.81;;;22.16;36.30
50268;BME280;36153;50.960;6.220;2023-06-04T07:33:37;101084.22;;;22.36;35.56
50268;BME280;36153;50.960;6.220;2023-06-04T07:36:43;101086.63;;;22.43;34.94
50268;BME280;36153;50.960;6.220;2023-06-04T07:39:43;101092.72;;;22.47;35.01
50268;BME280;36153;50.960;6.220;2023-06-04T07:42:45;101087.53;;;22.74;34.29
50268;BME280;36153;50.960;6.220;2023-06-04T07:45:47;101089.34;;;23.01;33.84
50268;BME280;36153;50.960;6.220;2023-06-04T07:48:47;101093.75;;;23.31;33.14
50268;BME280;36153;50.960;6.220;2023-06-04T07:51:47;101093.44;;;23.13;33.22
50268;BME280;36153;50.960;6.220;2023-06-04T07:54:48;101088.88;;;23.17;32.89
50268;BME280;36153;50.960;6.220;2023-06-04T07:57:48;101087.31;;;23.38;32.70
50268;BME280;36153;50.960;6.220;2023-06-04T08:00:49;101093.31;;;23.45;32.67
50268;BME280;36153;50.960;6.220;2023-06-04T08:03:50;101083.25;;;23.81;32.18
50268;BME280;36153;50.960;6.220;2023-06-04T08:06:51;101093.00;;;23.81;32.43
50268;BME280;36153;50.960;6.220;2023-06-04T08:09:51;101084.91;;;23.84;32.17
50268;BME280;36153;50.960;6.220;2023-06-04T08:12:52;101095.69;;;23.79;32.09
50268;BME280;36153;50.960;6.220;2023-06-04T08:15:53;101098.22;;;24.11;32.15
50268;BME280;36153;50.960;6.220;2023-06-04T08:18:53;101097.00;;;24.19;32.25
50268;BME280;36153;50.960;6.220;2023-06-04T08:21:54;101092.88;;;24.11;32.10
50268;BME280;36153;50.960;6.220;2023-06-04T08:24:56;101088.91;;;24.46;32.25
50268;BME280;36153;50.960;6.220;2023-06-04T08:27:57;101087.19;;;24.70;31.63
50268;BME280;36153;50.960;6.220;2023-06-04T08:30:57;101092.56;;;24.91;31.71
50268;BME280;36153;50.960;6.220;2023-06-04T08:33:58;101093.16;;;24.76;31.67
50268;BME280;36153;50.960;6.220;2023-06-04T08:36:59;101094.00;;;24.78;32.01
50268;BME280;36153;50.960;6.220;2023-06-04T08:39:59;101096.53;;;24.81;31.43
50268;BME280;36153;50.960;6.220;2023-06-04T08:43:00;101093.91;;;25.25;31.68
50268;BME280;36153;50.960;6.220;2023-06-04T08:46:01;101092.59;;;25.58;31.02
50268;BME280;36153;50.960;6.220;2023-06-04T08:49:07;101092.25;;;25.45;30.95
50268;BME280;36153;50.960;6.220;2023-06-04T08:52:08;101090.28;;;25.70;30.58
50268;BME280;36153;50.960;6.220;2023-06-04T08:55:11;101088.16;;;25.79;30.96
50268;BME280;36153;50.960;6.220;2023-06-04T08:58:12;101097.03;;;25.79;30.71
50268;BME280;36153;50.960;6.220;2023-06-04T09:01:15;101090.03;;;25.97;30.06
50268;BME280;36153;50.960;6.220;2023-06-04T09:04:21;101102.41;;;25.98;29.36
50268;BME280;36153;50.960;6.220;2023-06-04T09:07:23;101093.97;;;26.30;29.59
50268;BME280;36153;50.960;6.220;2023-06-04T09:10:24;101101.22;;;26.47;28.87
50268;BME280;36153;50.960;6.220;2023-06-04T09:13:28;101094.13;;;26.46;29.82
50268;BME280;36153;50.960;6.220;2023-06-04T09:16:30;101095.56;;;26.73;29.25
50268;BME280;36153;50.960;6.220;2023-06-04T09:19:37;101094.47;;;26.78;28.56
50268;BME280;36153;50.960;6.220;2023-06-04T09:22:38;101093.47;;;26.99;28.23
50268;BME280;36153;50.960;6.220;2023-06-04T09:25:42;101093.81;;;26.91;27.87
50268;BME280;36153;50.960;6.220;2023-06-04T09:28:45;101084.09;;;26.71;27.79
50268;BME280;36153;50.960;6.220;2023-06-04T09:31:58;101095.56;;;26.92;28.11
50268;BME280;36153;50.960;6.220;2023-06-04T09:35:28;101081.84;;;27.00;26.13
50268;BME280;36153;50.960;6.220;2023-06-04T09:38:35;101078.59;;;27.13;26.93
50268;BME280;36153;50.960;6.220;2023-06-04T09:41:35;101088.81;;;27.22;26.61
50268;BME280;36153;50.960;6.220;2023-06-04T09:44:45;101096.91;;;27.57;27.36
50268;BME280;36153;50.960;6.220;2023-06-04T09:47:48;101093.47;;;28.07;26.28
50268;BME280;36153;50.960;6.220;2023-06-04T09:50:48;101094.50;;;28.05;25.86
50268;BME280;36153;50.960;6.220;2023-06-04T09:53:59;101082.50;;;28.30;25.29
50268;BME280;36153;50.960;6.220;2023-06-04T09:57:00;101079.81;;;28.63;25.65
50268;BME280;36153;50.960;6.220;2023-06-04T10:00:01;101082.66;;;28.76;25.65
50268;BME280;36153;50.960;6.220;2023-06-04T10:03:06;101089.56;;;28.96;25.34
50268;BME280;36153;50.960;6.220;2023-06-04T10:06:08;101082.28;;;29.14;25.42
50268;BME280;36153;50.960;6.220;2023-06-04T10:09:09;101078.41;;;29.20;24.51
50268;BME280;36153;50.960;6.220;2023-06-04T10:12:09;101083.78;;;28.88;24.67
50268;BME280;36153;50.960;6.220;2023-06-04T10:15:12;101082.22;;;28.84;24.50
50268;BME280;36153;50.960;6.220;2023-06-04T10:18:15;101079.66;;;28.98;23.79
50268;BME280;36153;50.960;6.220;2023-06-04T10:21:17;101083.88;;;29.34;24.20
50268;BME280;36153;50.960;6.220;2023-06-04T10:24:18;101074.25;;;29.14;23.45
50268;BME280;36153;50.960;6.220;2023-06-04T10:27:20;101076.44;;;28.91;25.70
50268;BME280;36153;50.960;6.220;2023-06-04T10:30:22;101075.66;;;29.82;23.83
50268;BME280;36153;50.960;6.220;2023-06-04T10:33:23;101070.72;;;30.05;23.19
50268;BME280;36153;50.960;6.220;2023-06-04T10:36:26;101065.75;;;29.99;22.60
50268;BME280;36153;50.960;6.220;2023-06-04T10:39:31;101062.97;;;30.14;23.16
50268;BME280;36153;50.960;6.220;2023-06-04T10:42:41;101059.81;;;30.37;22.12
50268;BME280;36153;50.960;6.220;2023-06-04T10:45:42;101056.63;;;29.87;23.65
50268;BME280;36153;50.960;6.220;2023-06-04T10:48:47;101056.28;;;30.22;23.96
50268;BME280;36153;50.960;6.220;2023-06-04T10:51:48;101045.44;;;30.09;22.47
50268;BME280;36153;50.960;6.220;2023-06-04T10:54:48;101053.69;;;29.91;22.53
50268;BME280;36153;50.960;6.220;2023-06-04T10:57:56;101055.72;;;30.02;23.45
50268;BME280;36153;50.960;6.220;2023-06-04T11:00:57;101062.41;;;30.09;22.60
50268;BME280;36153;50.960;6.220;2023-06-04T11:03:58;101065.09;;;30.24;22.92
50268;BME280;36153;50.960;6.220;2023-06-04T11:10:04;101058.97;;;30.36;21.96
50268;BME280;36153;50.960;6.220;2023-06-04T11:13:05;101060.25;;;30.87;21.55
50268;BME280;36153;50.960;6.220;2023-06-04T11:16:19;101055.22;;;30.95;21.68
50268;BME280;36153;50.960;6.220;2023-06-04T11:19:20;101045.69;;;30.62;21.54
50268;BME280;36153;50.960;6.220;2023-06-04T11:22:21;101049.16;;;30.64;21.23
50268;BME280;36153;50.960;6.220;2023-06-04T11:25:22;101041.69;;;30.11;22.57
50268;BME280;36153;50.960;6.220;2023-06-04T11:28:23;101040.63;;;30.57;20.38
50268;BME280;36153;50.960;6.220;2023-06-04T11:31:23;101030.06;;;30.96;21.06
50268;BME280;36153;50.960;6.220;2023-06-04T11:34:28;101031.97;;;31.08;21.67
50268;BME280;36153;50.960;6.220;2023-06-04T11:37:29;101036.59;;;31.06;21.00
50268;BME280;36153;50.960;6.220;2023-06-04T11:40:32;101029.94;;;30.70;20.99
50268;BME280;36153;50.960;6.220;2023-06-04T11:43:32;101035.94;;;30.46;21.04
50268;BME280;36153;50.960;6.220;2023-06-04T11:46:39;101041.63;;;30.84;20.77
50268;BME280;36153;50.960;6.220;2023-06-04T11:49:39;101029.19;;;30.68;20.80
50268;BME280;36153;50.960;6.220;2023-06-04T11:52:41;101036.78;;;31.03;20.31
50268;BME280;36153;50.960;6.220;2023-06-04T11:55:41;101025.19;;;31.56;20.26
50268;BME280;36153;50.960;6.220;2023-06-04T11:58:42;101036.34;;;31.64;20.32
50268;BME280;36153;50.960;6.220;2023-06-04T12:01:44;101036.25;;;31.38;20.57
50268;BME280;36153;50.960;6.220;2023-06-04T12:04:45;101034.13;;;31.56;20.95
50268;BME280;36153;50.960;6.220;2023-06-04T12:07:46;101037.00;;;31.93;20.35
50268;BME280;36153;50.960;6.220;2023-06-04T12:10:47;101031.34;;;31.18;20.80
50268;BME280;36153;50.960;6.220;2023-06-04T12:13:47;101038.50;;;31.85;20.25
50268;BME280;36153;50.960;6.220;2023-06-04T12:16:59;101031.16;;;31.74;19.98
50268;BME280;36153;50.960;6.220;2023-06-04T12:19:59;101029.84;;;32.05;19.79
50268;BME280;36153;50.960;6.220;2023-06-04T12:23:00;101018.03;;;32.33;19.98
50268;BME280;36153;50.960;6.220;2023-06-04T12:26:01;101015.44;;;32.69;19.76
50268;BME280;36153;50.960;6.220;2023-06-04T12:29:14;101019.88;;;32.20;20.83
50268;BME280;36153;50.960;6.220;2023-06-04T12:32:15;101024.94;;;31.86;19.67
50268;BME280;36153;50.960;6.220;2023-06-04T12:35:15;101022.50;;;31.56;20.03
50268;BME280;36153;50.960;6.220;2023-06-04T12:38:16;101013.09;;;32.14;19.83
50268;BME280;36153;50.960;6.220;2023-06-04T12:41:16;101001.75;;;32.09;20.07
50268;BME280;36153;50.960;6.220;2023-06-04T12:44:17;101017.16;;;31.69;20.49
50268;BME280;36153;50.960;6.220;2023-06-04T12:47:17;101011.38;;;31.75;20.26
50268;BME280;36153;50.960;6.220;2023-06-04T12:50:17;101014.31;;;32.47;19.75
50268;BME280;36153;50.960;6.220;2023-06-04T12:53:18;101007.53;;;32.79;19.29
50268;BME280;36153;50.960;6.220;2023-06-04T12:56:18;101004.50;;;32.46;19.82
50268;BME280;36153;50.960;6.220;2023-06-04T12:59:19;101007.00;;;32.37;19.04
50268;BME280;36153;50.960;6.220;2023-06-04T13:02:19;101012.41;;;32.11;19.11
50268;BME280;36153;50.960;6.220;2023-06-04T13:05:19;101013.47;;;32.34;18.99
50268;BME280;36153;50.960;6.220;2023-06-04T13:08:20;101017.31;;;32.56;18.58
50268;BME280;36153;50.960;6.220;2023-06-04T13:11:23;101011.31;;;32.39;19.06
50268;BME280;36153;50.960;6.220;2023-06-04T13:14:24;101004.22;;;32.75;18.82
50268;BME280;36153;50.960;6.220;2023-06-04T13:17:25;101008.13;;;32.71;18.64
50268;BME280;36153;50.960;6.220;2023-06-04T13:20:25;101009.38;;;32.78;18.62
50268;BME280;36153;50.960;6.220;2023-06-04T13:23:25;101015.38;;;33.30;18.71
50268;BME280;36153;50.960;6.220;2023-06-04T13:26:26;101014.22;;;33.22;19.47
50268;BME280;36153;50.960;6.220;2023-06-04T13:29:26;101017.53;;;32.90;18.57
50268;BME280;36153;50.960;6.220;2023-06-04T13:32:27;101001.16;;;32.56;18.59
50268;BME280;36153;50.960;6.220;2023-06-04T13:35:27;101001.53;;;32.12;18.92
50268;BME280;36153;50.960;6.220;2023-06-04T13:38:27;101003.16;;;32.15;19.58
50268;BME280;36153;50.960;6.220;2023-06-04T13:41:28;101002.78;;;32.45;18.01
50268;BME280;36153;50.960;6.220;2023-06-04T13:44:28;101001.72;;;32.72;18.33
50268;BME280;36153;50.960;6.220;2023-06-04T13:47:28;100995.81;;;32.67;18.27
50268;BME280;36153;50.960;6.220;2023-06-04T13:50:29;101000.81;;;32.84;17.41
50268;BME280;36153;50.960;6.220;2023-06-04T13:53:29;100996.88;;;32.77;17.39
50268;BME280;36153;50.960;6.220;2023-06-04T13:56:30;100997.75;;;33.38;18.04
50268;BME280;36153;50.960;6.220;2023-06-04T13:59:30;100998.97;;;33.09;18.05
50268;BME280;36153;50.960;6.220;2023-06-04T14:02:31;100991.16;;;33.17;17.97
50268;BME280;36153;50.960;6.220;2023-06-04T14:05:31;100991.94;;;32.71;17.42
50268;BME280;36153;50.960;6.220;2023-06-04T14:08:32;100986.13;;;33.48;17.92
50268;BME280;36153;50.960;6.220;2023-06-04T14:11:32;100983.63;;;33.81;17.54
50268;BME280;36153;50.960;6.220;2023-06-04T14:14:33;100977.69;;;33.17;17.63
50268;BME280;36153;50.960;6.220;2023-06-04T14:17:36;100979.59;;;33.40;17.88
50268;BME280;36153;50.960;6.220;2023-06-04T14:20:36;100977.69;;;33.17;17.15
50268;BME280;36153;50.960;6.220;2023-06-04T14:23:37;100980.19;;;33.32;16.92
50268;BME280;36153;50.960;6.220;2023-06-04T14:26:37;100982.69;;;33.22;17.48
50268;BME280;36153;50.960;6.220;2023-06-04T14:29:38;100973.09;;;33.31;16.85
50268;BME280;36153;50.960;6.220;2023-06-04T14:32:38;100971.41;;;33.64;17.00
50268;BME280;36153;50.960;6.220;2023-06-04T14:35:40;100970.84;;;33.83;16.95
50268;BME280;36153;50.960;6.220;2023-06-04T14:38:46;100964.81;;;33.79;17.09
50268;BME280;36153;50.960;6.220;2023-06-04T14:41:48;100967.97;;;33.39;16.83
50268;BME280;36153;50.960;6.220;2023-06-04T14:44:49;100959.59;;;33.89;17.07
50268;BME280;36153;50.960;6.220;2023-06-04T14:47:49;100952.72;;;33.85;16.16
50268;BME280;36153;50.960;6.220;2023-06-04T14:50:51;100960.75;;;33.15;16.64
50268;BME280;36153;50.960;6.220;2023-06-04T14:53:53;100963.03;;;33.33;16.39
50268;BME280;36153;50.960;6.220;2023-06-04T14:56:54;100953.25;;;33.08;16.02
50268;BME280;36153;50.960;6.220;2023-06-04T14:59:54;100948.09;;;33.05;16.97
50268;BME280;36153;50.960;6.220;2023-06-04T15:02:54;100949.34;;;33.70;16.54
50268;BME280;36153;50.960;6.220;2023-06-04T15:05:55;100946.06;;;33.78;16.52
50268;BME280;36153;50.960;6.220;2023-06-04T15:08:56;100947.88;;;34.00;16.19
50268;BME280;36153;50.960;6.220;2023-06-04T15:11:56;100943.22;;;33.79;15.86
50268;BME280;36153;50.960;6.220;2023-06-04T15:14:57;100951.81;;;32.79;16.21
50268;BME280;36153;50.960;6.220;2023-06-04T15:17:57;100940.72;;;32.71;16.44
50268;BME280;36153;50.960;6.220;2023-06-04T15:20:57;100941.91;;;32.67;16.51
50268;BME280;36153;50.960;6.220;2023-06-04T15:23:58;100944.47;;;32.93;16.46
50268;BME280;36153;50.960;6.220;2023-06-04T15:26:58;100935.00;;;33.11;16.14
50268;BME280;36153;50.960;6.220;2023-06-04T15:29:59;100931.31;;;33.12;15.77
50268;BME280;36153;50.960;6.220;2023-06-04T15:32:59;100934.00;;;33.12;16.31
50268;BME280;36153;50.960;6.220;2023-06-04T15:36:00;100941.72;;;33.41;16.14
50268;BME280;36153;50.960;6.220;2023-06-04T15:39:00;100935.34;;;33.18;16.46
50268;BME280;36153;50.960;6.220;2023-06-04T15:42:01;100935.81;;;33.36;16.32
50268;BME280;36153;50.960;6.220;2023-06-04T15:45:01;100930.19;;;33.50;16.68
50268;BME280;36153;50.960;6.220;2023-06-04T15:48:02;100928.97;;;33.66;16.38
50268;BME280;36153;50.960;6.220;2023-06-04T15:51:02;100937.72;;;33.92;16.42